createdAt,value
2018-05-13T00:00:26.343Z,76.60
2018-05-13T00:02:52.917Z,76.80
2018-05-13T00:05:19.632Z,76.70
2018-05-13T00:07:46.170Z,76.80
2018-05-13T00:10:12.740Z,76.90
2018-05-13T00:12:39.660Z,77.00
2018-05-13T00:15:06.268Z,77.00
2018-05-13T00:17:32.824Z,76.40
2018-05-13T00:19:59.434Z,76.00
2018-05-13T00:22:26.389Z,76.10
2018-05-13T00:24:52.927Z,76.00
2018-05-13T00:27:19.509Z,76.20
2018-05-13T00:29:46.069Z,76.90
2018-05-13T00:32:12.644Z,77.60
2018-05-13T00:34:39.221Z,77.30
2018-05-13T00:37:05.773Z,77.60
2018-05-13T00:39:32.740Z,78.70
2018-05-13T00:41:59.660Z,78.70
2018-05-13T00:44:26.246Z,78.80
2018-05-13T00:46:53.197Z,79.00
2018-05-13T00:49:20.141Z,79.10
2018-05-13T00:51:47.133Z,78.50
2018-05-13T00:54:25.856Z,78.50
2018-05-13T00:56:52.833Z,76.50
2018-05-13T00:59:19.381Z,76.50
2018-05-13T01:01:45.964Z,76.20
2018-05-13T01:04:12.541Z,75.80
2018-05-13T01:06:39.497Z,77.50
2018-05-13T01:09:06.436Z,77.10
2018-05-13T01:11:33.015Z,77.10
2018-05-13T01:13:59.945Z,77.80
2018-05-13T01:16:26.511Z,77.80
2018-05-13T01:18:53.460Z,79.10
2018-05-13T01:21:20.013Z,79.10
2018-05-13T01:23:46.975Z,79.20
2018-05-13T01:26:13.553Z,79.20
2018-05-13T01:28:40.130Z,79.00
2018-05-13T01:31:06.703Z,78.90
2018-05-13T01:33:33.244Z,78.80
2018-05-13T01:35:59.816Z,78.60
2018-05-13T01:38:26.376Z,78.80
2018-05-13T01:40:52.962Z,78.70
2018-05-13T01:43:19.540Z,79.80
2018-05-13T01:45:46.474Z,79.30
2018-05-13T01:48:13.101Z,79.30
2018-05-13T01:50:39.644Z,80.40
2018-05-13T01:53:06.227Z,79.50
2018-05-13T01:55:32.808Z,80.00
2018-05-13T01:57:59.716Z,79.20
2018-05-13T02:00:26.288Z,79.20
2018-05-13T02:02:52.832Z,79.00
2018-05-13T02:05:19.428Z,79.00
2018-05-13T02:07:46.053Z,78.50
2018-05-13T02:10:12.973Z,80.50
2018-05-13T02:12:39.553Z,80.50
2018-05-13T02:15:06.485Z,80.40
2018-05-13T02:17:33.048Z,80.40
2018-05-13T02:20:00.016Z,81.90
2018-05-13T02:22:26.923Z,82.50
2018-05-13T02:24:53.488Z,82.50
2018-05-13T02:27:20.062Z,83.10
2018-05-13T02:29:47.024Z,84.00
2018-05-13T02:32:13.972Z,84.10
2018-05-13T02:34:40.899Z,83.70
2018-05-13T02:37:07.485Z,83.70
2018-05-13T02:39:34.036Z,84.00
2018-05-13T02:42:00.612Z,83.70
2018-05-13T02:44:27.192Z,82.70
2018-05-13T02:46:53.745Z,82.20
2018-05-13T02:49:20.344Z,82.20
2018-05-13T02:51:46.925Z,82.10
2018-05-13T02:54:13.515Z,81.60
2018-05-13T02:56:40.490Z,81.90
2018-05-13T02:59:07.036Z,81.90
2018-05-13T03:01:33.613Z,81.80
2018-05-13T03:04:00.158Z,81.40
2018-05-13T03:08:59.985Z,80.60
2018-05-13T03:11:26.556Z,80.20
2018-05-13T03:13:53.124Z,80.20
2018-05-13T03:16:19.687Z,80.10
2018-05-13T03:18:46.672Z,79.70
2018-05-13T03:21:13.280Z,79.70
2018-05-13T03:23:39.856Z,79.70
2018-05-13T03:26:06.423Z,80.40
2018-05-13T03:28:32.952Z,79.20
2018-05-13T03:30:59.908Z,79.70
2018-05-13T03:33:26.815Z,80.20
2018-05-13T03:35:53.380Z,80.20
2018-05-13T03:38:19.972Z,80.50
2018-05-13T03:40:46.911Z,81.40
2018-05-13T03:43:13.476Z,81.40
2018-05-13T03:45:40.406Z,81.00
2018-05-13T03:48:06.967Z,81.00
2018-05-13T03:50:33.916Z,81.20
2018-05-13T03:53:00.460Z,81.20
2018-05-13T03:55:27.040Z,82.00
2018-05-13T03:57:53.576Z,81.30
2018-05-13T04:00:20.533Z,81.60
2018-05-13T04:02:47.139Z,81.60
2018-05-13T04:05:13.696Z,81.60
2018-05-13T04:11:11.329Z,81.60
2018-05-13T04:13:50.393Z,82.50
2018-05-13T04:16:17.016Z,82.50
2018-05-13T04:18:43.989Z,83.10
2018-05-13T04:21:10.539Z,83.10
2018-05-13T04:23:37.130Z,83.10
2018-05-13T04:26:03.712Z,82.60
2018-05-13T04:28:30.270Z,82.60
2018-05-13T04:30:57.220Z,82.90
2018-05-13T04:33:23.800Z,82.90
2018-05-13T04:35:50.397Z,83.60
2018-05-13T04:38:17.092Z,83.40
2018-05-13T04:40:43.635Z,83.70
2018-05-13T04:43:10.207Z,84.00
2018-05-13T04:45:36.755Z,84.00
2018-05-13T04:48:03.373Z,83.40
2018-05-13T04:50:36.844Z,84.00
2018-05-13T04:53:03.432Z,83.90
2018-05-13T04:55:30.373Z,84.10
2018-05-13T04:57:57.296Z,83.70
2018-05-13T05:00:23.864Z,83.70
2018-05-13T05:02:50.433Z,82.60
2018-05-13T05:05:17.053Z,82.90
2018-05-13T05:07:43.699Z,81.30
2018-05-13T05:10:10.307Z,80.30
2018-05-13T05:12:36.905Z,79.00
2018-05-13T05:15:03.468Z,77.30
2018-05-13T05:17:30.415Z,75.70
2018-05-13T05:19:56.988Z,75.70
2018-05-13T05:22:23.541Z,75.00
2018-05-13T05:24:50.121Z,74.00
2018-05-13T05:27:16.736Z,72.30
2018-05-13T05:29:43.277Z,72.60
2018-05-13T05:32:09.851Z,73.00
2018-05-13T05:34:36.432Z,72.40
2018-05-13T05:37:02.984Z,73.10
2018-05-13T05:39:29.558Z,73.60
2018-05-13T05:41:56.474Z,72.00
2018-05-13T05:44:23.049Z,72.00
2018-05-13T05:46:49.700Z,70.80
2018-05-13T05:49:16.654Z,70.80
2018-05-13T05:51:43.640Z,71.10
2018-05-13T05:54:10.236Z,71.10
2018-05-13T05:56:36.813Z,70.90
2018-05-13T05:59:03.781Z,70.90
2018-05-13T06:01:30.340Z,70.90
2018-05-13T06:03:56.933Z,71.20
2018-05-13T06:06:23.484Z,70.10
2018-05-13T06:08:50.093Z,70.40
2018-05-13T06:11:16.710Z,70.60
2018-05-13T06:13:43.673Z,67.90
2018-05-13T06:16:10.665Z,68.70
2018-05-13T06:18:37.200Z,68.70
2018-05-13T06:21:03.844Z,69.20
2018-05-13T06:23:30.413Z,68.40
2018-05-13T06:25:56.956Z,66.90
2018-05-13T06:28:23.540Z,65.90
2018-05-13T06:30:50.092Z,65.80
2018-05-13T06:33:16.690Z,66.80
2018-05-13T06:35:43.269Z,66.60
2018-05-13T06:38:09.812Z,65.90
2018-05-13T06:40:36.400Z,65.20
2018-05-13T06:43:03.348Z,65.00
2018-05-13T06:45:29.937Z,65.00
2018-05-13T06:47:56.525Z,65.90
2018-05-13T06:50:23.071Z,64.80
2018-05-13T06:52:49.662Z,64.40
2018-05-13T06:55:16.216Z,64.60
2018-05-13T06:57:42.807Z,65.10
2018-05-13T07:00:09.390Z,65.70
2018-05-13T07:02:36.326Z,65.70
2018-05-13T07:05:02.956Z,65.70
2018-05-13T07:07:29.732Z,64.60
2018-05-13T07:09:56.321Z,64.50
2018-05-13T07:12:23.022Z,65.70
2018-05-13T07:14:49.540Z,64.80
2018-05-13T07:17:16.232Z,64.20
2018-05-13T07:19:42.768Z,65.00
2018-05-13T07:22:09.457Z,64.80
2018-05-13T07:24:36.429Z,62.30
2018-05-13T07:27:02.992Z,62.30
2018-05-13T07:29:29.589Z,62.40
2018-05-13T07:31:56.157Z,62.90
2018-05-13T07:34:23.489Z,63.50
2018-05-13T07:36:50.088Z,63.50
2018-05-13T07:39:16.708Z,62.90
2018-05-13T07:41:43.717Z,63.90
2018-05-13T07:44:10.263Z,63.90
2018-05-13T07:46:36.840Z,62.50
2018-05-13T07:49:03.465Z,60.80
2018-05-13T07:51:30.012Z,60.90
2018-05-13T07:53:56.601Z,63.40
2018-05-13T07:56:23.149Z,61.70
2018-05-13T07:58:49.753Z,61.70
2018-05-13T08:01:16.332Z,63.20
2018-05-13T08:03:42.872Z,60.60
2018-05-13T08:06:10.257Z,60.70
2018-05-13T08:08:36.803Z,61.50
2018-05-13T08:11:03.400Z,60.70
2018-05-13T08:13:30.012Z,61.50
2018-05-13T08:15:56.913Z,60.10
2018-05-13T08:18:23.485Z,60.10
2018-05-13T08:20:50.054Z,62.00
2018-05-13T08:23:16.681Z,61.70
2018-05-13T08:25:43.278Z,61.40
2018-05-13T08:28:09.822Z,61.70
2018-05-13T08:30:36.760Z,62.60
2018-05-13T08:33:03.696Z,62.00
2018-05-13T08:35:30.256Z,62.00
2018-05-13T08:37:56.844Z,60.60
2018-05-13T08:40:23.420Z,61.60
2018-05-13T08:42:49.981Z,63.20
2018-05-13T08:45:16.611Z,60.30
2018-05-13T08:47:43.212Z,60.40
2018-05-13T08:50:10.148Z,62.30
2018-05-13T08:52:36.775Z,62.30
2018-05-13T08:55:03.385Z,60.80
2018-05-13T08:57:29.991Z,62.10
2018-05-13T08:59:56.611Z,61.80
2018-05-13T09:02:23.145Z,60.50
2018-05-13T09:04:49.751Z,59.90
2018-05-13T09:07:16.695Z,59.70
2018-05-13T09:09:43.272Z,59.70
2018-05-13T09:12:10.292Z,60.00
2018-05-13T09:14:36.876Z,60.00
2018-05-13T09:17:04.104Z,61.40
2018-05-13T09:19:30.899Z,61.40
2018-05-13T09:21:57.942Z,61.30
2018-05-13T09:24:25.154Z,60.10
2018-05-13T09:26:51.936Z,60.10
2018-05-13T09:29:18.522Z,60.00
2018-05-13T09:31:45.076Z,60.00
2018-05-13T09:34:11.646Z,59.50
2018-05-13T09:36:38.251Z,59.50
2018-05-13T09:39:05.531Z,59.20
2018-05-13T09:41:32.124Z,59.20
2018-05-13T09:43:58.680Z,59.80
2018-05-13T09:46:25.260Z,59.90
2018-05-13T09:48:52.272Z,59.20
2018-05-13T09:51:18.886Z,59.20
2018-05-13T09:53:45.796Z,58.10
2018-05-13T09:56:12.860Z,58.10
2018-05-13T09:58:43.991Z,57.90
2018-05-13T10:01:11.460Z,58.50
2018-05-13T10:03:37.992Z,58.70
2018-05-13T10:06:04.599Z,58.30
2018-05-13T10:08:31.519Z,57.20
2018-05-13T10:10:58.092Z,57.20
2018-05-13T10:13:24.687Z,56.00
2018-05-13T10:15:51.260Z,57.40
2018-05-13T10:18:17.837Z,56.50
2018-05-13T10:20:44.748Z,56.70
2018-05-13T10:23:11.369Z,56.70
2018-05-13T10:25:37.937Z,56.60
2018-05-13T10:28:04.488Z,57.90
2018-05-13T10:30:31.077Z,57.40
2018-05-13T10:32:57.980Z,55.40
2018-05-13T10:35:24.552Z,57.10
2018-05-13T10:38:06.168Z,55.40
2018-05-13T10:40:33.158Z,56.70
2018-05-13T10:42:59.760Z,57.00
2018-05-13T10:45:26.341Z,55.70
2018-05-13T10:47:53.100Z,56.20
2018-05-13T10:50:19.780Z,55.80
2018-05-13T10:52:47.781Z,55.50
2018-05-13T10:55:14.333Z,56.60
2018-05-13T10:57:41.112Z,56.20
2018-05-13T11:00:07.906Z,55.90
2018-05-13T11:02:34.768Z,56.30
2018-05-13T11:05:01.447Z,55.90
2018-05-13T11:07:28.048Z,55.20
2018-05-13T11:09:54.978Z,55.50
2018-05-13T11:12:21.565Z,55.50
2018-05-13T11:14:48.168Z,56.50
2018-05-13T11:17:14.739Z,56.10
2018-05-13T11:19:41.695Z,55.20
2018-05-13T11:22:08.600Z,55.20
2018-05-13T11:24:35.191Z,55.20
2018-05-13T11:27:01.732Z,55.40
2018-05-13T11:29:28.324Z,54.00
2018-05-13T11:31:54.896Z,53.90
2018-05-13T11:34:21.437Z,54.00
2018-05-13T11:36:48.033Z,55.20
2018-05-13T11:39:14.948Z,54.50
2018-05-13T11:41:41.525Z,54.50
2018-05-13T11:44:08.128Z,54.00
2018-05-13T11:46:34.727Z,54.60
2018-05-13T11:49:01.293Z,55.30
2018-05-13T11:51:28.204Z,54.50
2018-05-13T11:53:54.774Z,54.50
2018-05-13T11:56:21.408Z,54.90
2018-05-13T11:58:47.912Z,53.30
2018-05-13T12:01:14.498Z,54.00
2018-05-13T12:03:41.259Z,53.60
2018-05-13T12:06:07.869Z,54.80
2018-05-13T12:08:34.452Z,53.50
2018-05-13T12:11:00.997Z,53.90
2018-05-13T12:13:27.572Z,52.60
2018-05-13T12:15:54.534Z,52.00
2018-05-13T12:18:21.456Z,51.00
2018-05-13T12:20:51.024Z,51.00
2018-05-13T12:23:17.582Z,50.60
2018-05-13T12:25:44.132Z,50.50
2018-05-13T12:28:10.707Z,48.70
2018-05-13T12:30:37.283Z,50.10
2018-05-13T12:33:03.856Z,49.50
2018-05-13T12:35:30.466Z,48.70
2018-05-13T12:37:57.147Z,50.00
2018-05-13T12:40:24.357Z,49.00
2018-05-13T12:42:50.983Z,49.10
2018-05-13T12:45:17.570Z,49.20
2018-05-13T12:47:44.213Z,48.70
2018-05-13T12:50:10.839Z,48.70
2018-05-13T12:52:37.440Z,48.90
2018-05-13T12:55:04.132Z,47.80
2018-05-13T12:57:30.672Z,48.20
2018-05-13T12:59:57.248Z,47.70
2018-05-13T13:02:23.879Z,48.40
2018-05-13T13:04:50.408Z,48.20
2018-05-13T13:07:17.008Z,50.40
2018-05-13T13:09:43.572Z,50.50
2018-05-13T13:12:10.156Z,48.70
2018-05-13T13:14:36.697Z,50.00
2018-05-13T13:17:03.709Z,51.60
2018-05-13T13:19:30.257Z,51.60
2018-05-13T13:21:56.837Z,52.70
2018-05-13T13:24:23.809Z,50.70
2018-05-13T13:26:50.356Z,50.70
2018-05-13T13:29:16.948Z,50.60
2018-05-13T13:31:43.491Z,51.40
2018-05-13T13:34:10.068Z,52.10
2018-05-13T13:36:36.700Z,51.10
2018-05-13T13:39:03.372Z,50.70
2018-05-13T13:41:29.961Z,50.40
2018-05-13T13:43:56.512Z,49.50
2018-05-13T13:46:23.108Z,50.40
2018-05-13T13:48:49.712Z,49.60
2018-05-13T13:51:16.251Z,48.70
2018-05-13T13:53:42.844Z,48.00
2018-05-13T13:56:09.384Z,47.70
2018-05-13T13:58:35.963Z,48.00
2018-05-13T14:01:03.001Z,48.00
2018-05-13T14:03:29.547Z,48.20
2018-05-13T14:05:56.145Z,49.00
2018-05-13T14:08:22.692Z,48.00
2018-05-13T14:10:49.268Z,47.80
2018-05-13T14:13:15.841Z,48.40
2018-05-13T14:15:42.448Z,48.30
2018-05-13T14:18:09.099Z,48.00
2018-05-13T14:20:35.820Z,47.70
2018-05-13T14:23:02.381Z,48.50
2018-05-13T14:25:28.956Z,47.80
2018-05-13T14:27:55.501Z,47.60
2018-05-13T14:30:22.077Z,48.00
2018-05-13T14:32:48.651Z,49.50
2018-05-13T14:35:15.601Z,49.90
2018-05-13T14:37:42.564Z,49.30
2018-05-13T14:40:09.509Z,49.70
2018-05-13T14:42:36.474Z,50.00
2018-05-13T14:45:03.474Z,49.40
2018-05-13T14:47:30.053Z,49.40
2018-05-13T14:49:56.638Z,48.90
2018-05-13T14:52:23.556Z,48.20
2018-05-13T14:54:50.152Z,48.20
2018-05-13T14:57:16.711Z,48.90
2018-05-13T14:59:43.308Z,49.40
2018-05-13T15:02:09.893Z,49.70
2018-05-13T15:04:36.455Z,50.00
2018-05-13T15:07:03.112Z,50.50
2018-05-13T15:09:29.672Z,51.10
2018-05-13T15:11:56.220Z,50.70
2018-05-13T15:14:22.840Z,51.20
2018-05-13T15:16:49.460Z,51.30
2018-05-13T15:19:16.379Z,51.60
2018-05-13T15:21:42.971Z,51.60
2018-05-13T15:24:10.027Z,51.30
2018-05-13T15:26:36.671Z,51.30
2018-05-13T15:29:03.699Z,53.20
2018-05-13T15:31:30.224Z,53.20
2018-05-13T15:33:56.806Z,52.10
2018-05-13T15:36:23.375Z,52.50
2018-05-13T15:38:49.929Z,51.70
2018-05-13T15:41:16.898Z,52.50
2018-05-13T15:43:43.452Z,52.50
2018-05-13T15:46:10.056Z,52.80
2018-05-13T15:48:36.633Z,52.40
2018-05-13T15:51:03.633Z,53.90
2018-05-13T15:53:30.234Z,53.90
2018-05-13T15:55:56.796Z,52.30
2018-05-13T15:58:23.397Z,54.10
2018-05-13T16:00:50.005Z,61.60
2018-05-13T16:03:16.552Z,63.70
2018-05-13T16:05:43.143Z,65.50
2018-05-13T16:08:09.681Z,66.00
2018-05-13T16:10:36.256Z,65.50
2018-05-13T16:13:03.228Z,64.90
2018-05-13T16:15:30.131Z,65.00
2018-05-13T16:17:56.708Z,65.00
2018-05-13T16:20:23.273Z,65.70
2018-05-13T16:22:50.211Z,65.90
2018-05-13T16:25:16.792Z,65.90
2018-05-13T16:27:43.395Z,65.60
2018-05-13T16:30:10.154Z,65.50
2018-05-13T16:32:37.142Z,65.50
2018-05-13T16:35:04.549Z,66.40
2018-05-13T16:37:31.143Z,66.40
2018-05-13T16:39:58.044Z,66.80
2018-05-13T16:42:24.627Z,66.80
2018-05-13T16:44:51.176Z,68.70
2018-05-13T16:47:17.764Z,70.50
2018-05-13T16:49:44.389Z,78.30
2018-05-13T16:52:11.304Z,51.70
2018-05-13T16:54:37.872Z,51.90
2018-05-13T16:57:04.429Z,95.00
2018-05-13T16:59:31.004Z,93.80
2018-05-13T17:01:57.964Z,94.70
2018-05-13T17:04:24.884Z,95.60
2018-05-13T17:06:51.465Z,95.60
2018-05-13T17:09:18.485Z,98.50
2018-05-13T17:11:45.316Z,98.50
2018-05-13T17:14:12.164Z,97.10
2018-05-13T17:16:38.973Z,96.60
2018-05-13T17:19:06.184Z,94.70
2018-05-13T17:21:32.978Z,94.70
2018-05-13T17:23:59.848Z,94.80
2018-05-13T17:26:26.748Z,95.00
2018-05-13T17:28:53.535Z,95.00
2018-05-13T17:31:20.395Z,95.40
2018-05-13T17:33:47.200Z,96.30
2018-05-13T17:36:14.110Z,97.70
2018-05-13T17:38:41.352Z,96.40
2018-05-13T17:41:08.153Z,96.40
2018-05-13T17:43:35.066Z,95.10
2018-05-13T17:46:02.862Z,94.50
2018-05-13T17:48:30.052Z,96.70
2018-05-13T17:50:56.864Z,96.70
2018-05-13T17:53:23.704Z,96.60
2018-05-13T17:55:50.528Z,95.60
2018-05-13T17:58:17.990Z,90.00
2018-05-13T18:00:45.778Z,86.90
2018-05-13T18:03:12.746Z,87.70
2018-05-13T18:05:39.836Z,89.50
2018-05-13T18:08:06.400Z,89.50
2018-05-13T18:10:33.329Z,90.10
2018-05-13T18:13:02.598Z,90.10
2018-05-13T18:15:29.692Z,91.20
2018-05-13T18:17:56.245Z,94.60
2018-05-13T18:20:22.832Z,96.30
2018-05-13T18:22:49.544Z,98.50
2018-05-13T18:25:18.291Z,98.50
2018-05-13T18:27:44.938Z,98.50
2018-05-13T18:30:11.481Z,98.50
2018-05-13T18:32:38.064Z,97.80
2018-05-13T18:35:04.724Z,98.50
2018-05-13T18:37:46.305Z,98.50
2018-05-13T18:40:12.969Z,98.20
2018-05-13T18:42:39.504Z,98.50
2018-05-13T18:45:07.128Z,98.50
2018-05-13T18:47:34.053Z,98.50
2018-05-13T18:50:01.634Z,98.50
2018-05-13T18:52:28.263Z,98.50
2018-05-13T18:54:54.864Z,98.50
2018-05-13T18:57:22.244Z,98.50
2018-05-13T18:59:49.458Z,98.50
2018-05-13T19:02:19.551Z,98.50
2018-05-13T19:04:48.109Z,98.50
2018-05-13T19:07:15.062Z,98.50
2018-05-13T19:09:42.105Z,98.50
2018-05-13T19:12:09.052Z,97.60
2018-05-13T19:14:36.221Z,97.60
2018-05-13T19:17:10.824Z,98.00
2018-05-13T19:19:38.312Z,98.50
2018-05-13T19:22:05.364Z,98.50
2018-05-13T19:24:32.852Z,98.50
2018-05-13T19:26:59.441Z,98.20
2018-05-13T19:29:26.328Z,98.50
2018-05-13T19:31:55.362Z,98.50
2018-05-13T19:34:23.548Z,97.40
2018-05-13T19:36:50.820Z,98.40
2018-05-13T19:39:17.635Z,98.50
2018-05-13T19:41:44.228Z,98.30
2018-05-13T19:44:11.172Z,96.00
2018-05-13T19:46:37.719Z,96.00
2018-05-13T19:49:04.380Z,94.80
2018-05-13T19:51:30.960Z,94.60
2018-05-13T19:53:58.252Z,94.40
2018-05-13T19:56:24.841Z,94.30
2018-05-13T19:58:51.776Z,91.80
2018-05-13T20:01:18.348Z,91.80
2018-05-13T20:03:45.360Z,92.40
2018-05-13T20:06:11.907Z,92.40
2018-05-13T20:08:38.839Z,92.10
2018-05-13T20:11:05.397Z,92.10
2018-05-13T20:13:31.976Z,91.50
2018-05-13T20:15:59.114Z,91.10
2018-05-13T20:18:25.709Z,91.10
2018-05-13T20:20:52.620Z,90.50
2018-05-13T20:23:24.331Z,90.80
2018-05-13T20:25:50.849Z,92.10
2018-05-13T20:28:17.398Z,91.40
2018-05-13T20:30:43.975Z,91.70
2018-05-13T20:33:10.936Z,89.20
2018-05-13T20:35:37.904Z,89.00
2018-05-13T20:38:05.882Z,89.40
2018-05-13T20:40:32.816Z,90.30
2018-05-13T20:42:59.405Z,90.40
2018-05-13T20:45:25.988Z,90.50
2018-05-13T20:47:52.552Z,90.10
2018-05-13T20:50:19.156Z,90.60
2018-05-13T20:52:45.704Z,90.10
2018-05-13T20:55:12.308Z,90.00
2018-05-13T20:57:38.892Z,89.60
2018-05-13T21:00:05.476Z,89.90
2018-05-13T21:02:32.084Z,88.10
2018-05-13T21:04:58.664Z,87.60
2018-05-13T21:07:25.276Z,89.10
2018-05-13T21:09:51.855Z,89.10
2018-05-13T21:12:18.412Z,89.40
2018-05-13T21:14:44.983Z,89.40
2018-05-13T21:17:11.516Z,89.40
2018-05-13T21:19:38.092Z,89.60
2018-05-13T21:22:05.065Z,90.00
2018-05-13T21:24:32.019Z,90.90
2018-05-13T21:26:58.955Z,91.70
2018-05-13T21:29:25.496Z,91.70
2018-05-13T21:31:52.083Z,91.60
2018-05-13T21:34:18.674Z,91.50
2018-05-13T21:36:45.251Z,91.50
2018-05-13T21:39:12.205Z,89.90
2018-05-13T21:41:38.762Z,89.90
2018-05-13T21:44:05.332Z,89.60
2018-05-13T21:46:31.917Z,89.10
2018-05-13T21:48:58.451Z,89.70
2018-05-13T21:51:25.057Z,89.80
2018-05-13T21:53:51.964Z,89.80
2018-05-13T21:56:18.556Z,89.80
2018-05-13T21:58:45.496Z,90.40
2018-05-13T22:01:12.421Z,90.30
2018-05-13T22:03:38.991Z,90.30
2018-05-13T22:06:05.556Z,89.90
2018-05-13T22:08:32.496Z,90.70
2018-05-13T22:10:59.061Z,90.70
2018-05-13T22:13:25.972Z,91.50
2018-05-13T22:15:52.541Z,91.50
2018-05-13T22:18:19.100Z,92.60
2018-05-13T22:20:45.665Z,92.30
2018-05-13T22:23:12.247Z,92.50
2018-05-13T22:25:38.839Z,92.20
2018-05-13T22:28:05.394Z,92.20
2018-05-13T22:30:32.308Z,91.10
2018-05-13T22:32:58.885Z,91.10
2018-05-13T22:35:25.456Z,91.10
2018-05-13T22:37:52.409Z,91.90
2018-05-13T22:40:19.357Z,93.10
2018-05-13T22:42:46.284Z,93.00
2018-05-13T22:45:12.896Z,93.00
2018-05-13T22:47:39.473Z,93.10
2018-05-13T22:50:06.016Z,93.10
2018-05-13T22:52:32.596Z,92.90
2018-05-13T22:54:59.136Z,93.30
2018-05-13T22:57:25.707Z,92.90
2018-05-13T22:59:52.276Z,92.10
2018-05-13T23:02:19.184Z,92.10
2018-05-13T23:04:45.751Z,92.10
2018-05-13T23:07:12.316Z,91.70
2018-05-13T23:09:39.235Z,91.70
2018-05-13T23:12:05.804Z,91.70
2018-05-13T23:14:32.380Z,91.30
2018-05-13T23:16:58.941Z,91.20
2018-05-13T23:19:25.512Z,92.00
2018-05-13T23:21:52.052Z,92.40
2018-05-13T23:24:18.635Z,93.20
2018-05-13T23:26:45.601Z,92.70
2018-05-13T23:29:12.527Z,92.30
2018-05-13T23:31:39.116Z,92.30
2018-05-13T23:34:06.044Z,91.70
2018-05-13T23:36:32.680Z,91.70
2018-05-13T23:38:59.315Z,91.50
2018-05-13T23:41:25.928Z,90.40
2018-05-13T23:43:52.901Z,90.60
2018-05-13T23:46:19.446Z,90.60
2018-05-13T23:48:46.041Z,91.20
2018-05-13T23:51:12.613Z,91.30
2018-05-13T23:53:39.519Z,91.10
2018-05-13T23:56:06.084Z,91.10
2018-05-13T23:58:32.653Z,90.90
